sensor_id;sensor_type;location;lat;lon;timestamp;pressure;altitude;pressure_sealevel;temperature;humidity
11038;BME280;5572;49.540;11.932;2023-03-19T00:02:01;96230.50;;;4.39;100.00
11038;BME280;5572;49.540;11.932;2023-03-19T00:04:27;96260.56;;;4.51;100.00
11038;BME280;5572;49.540;11.932;2023-03-19T00:06:55;96277.16;;;4.53;100.00
11038;BME280;5572;49.540;11.932;2023-03-19T00:09:22;96299.56;;;4.42;100.00
11038;BME280;5572;49.540;11.932;2023-03-19T00:11:48;96312.88;;;4.32;100.00
11038;BME280;5572;49.540;11.932;2023-03-19T00:14:15;96331.84;;;4.30;100.00
11038;BME280;5572;49.540;11.932;2023-03-19T00:16:42;96359.41;;;4.31;100.00
11038;BME280;5572;49.540;11.932;2023-03-19T00:19:08;96380.50;;;4.27;100.00
11038;BME280;5572;49.540;11.932;2023-03-19T00:21:35;96388.97;;;4.20;100.00
11038;BME280;5572;49.540;11.932;2023-03-19T00:24:04;96401.63;;;4.24;100.00
11038;BME280;5572;49.540;11.932;2023-03-19T00:26:32;96393.13;;;4.32;100.00
11038;BME280;5572;49.540;11.932;2023-03-19T00:29:00;96402.13;;;4.21;100.00
11038;BME280;5572;49.540;11.932;2023-03-19T00:31:27;96423.25;;;4.22;100.00
11038;BME280;5572;49.540;11.932;2023-03-19T00:33:55;96411.41;;;4.14;100.00
11038;BME280;5572;49.540;11.932;2023-03-19T00:36:23;96409.53;;;4.14;100.00
11038;BME280;5572;49.540;11.932;2023-03-19T00:38:50;96414.13;;;4.19;100.00
11038;BME280;5572;49.540;11.932;2023-03-19T00:41:17;96419.13;;;4.10;100.00
11038;BME280;5572;49.540;11.932;2023-03-19T00:43:45;96420.78;;;4.16;100.00
11038;BME280;5572;49.540;11.932;2023-03-19T00:46:12;96438.00;;;3.99;100.00
11038;BME280;5572;49.540;11.932;2023-03-19T00:48:39;96434.47;;;3.93;100.00
11038;BME280;5572;49.540;11.932;2023-03-19T00:51:07;96442.22;;;3.95;100.00
11038;BME280;5572;49.540;11.932;2023-03-19T00:53:35;96432.41;;;4.05;100.00
11038;BME280;5572;49.540;11.932;2023-03-19T00:56:02;96442.03;;;4.01;100.00
11038;BME280;5572;49.540;11.932;2023-03-19T00:58:30;96447.19;;;4.08;100.00
11038;BME280;5572;49.540;11.932;2023-03-19T01:00:57;96441.81;;;4.08;100.00
11038;BME280;5572;49.540;11.932;2023-03-19T01:03:23;96448.72;;;4.04;100.00
11038;BME280;5572;49.540;11.932;2023-03-19T01:05:50;96453.50;;;4.02;100.00
11038;BME280;5572;49.540;11.932;2023-03-19T01:08:17;96470.19;;;3.87;100.00
11038;BME280;5572;49.540;11.932;2023-03-19T01:10:44;96473.13;;;3.86;100.00
11038;BME280;5572;49.540;11.932;2023-03-19T01:13:12;96471.13;;;3.98;100.00
11038;BME280;5572;49.540;11.932;2023-03-19T01:15:41;96474.84;;;3.97;100.00
11038;BME280;5572;49.540;11.932;2023-03-19T01:18:08;96412.50;;;3.91;100.00
11038;BME280;5572;49.540;11.932;2023-03-19T01:20:37;96421.66;;;3.74;100.00
11038;BME280;5572;49.540;11.932;2023-03-19T01:23:05;96436.69;;;3.80;100.00
11038;BME280;5572;49.540;11.932;2023-03-19T01:25:32;96439.22;;;3.70;100.00
11038;BME280;5572;49.540;11.932;2023-03-19T01:27:58;96444.72;;;3.58;100.00
11038;BME280;5572;49.540;11.932;2023-03-19T01:30:25;96438.06;;;3.61;100.00
11038;BME280;5572;49.540;11.932;2023-03-19T01:32:53;96451.19;;;3.62;100.00
11038;BME280;5572;49.540;11.932;2023-03-19T01:35:20;96451.38;;;3.56;100.00
11038;BME280;5572;49.540;11.932;2023-03-19T01:37:46;96449.75;;;3.55;100.00
11038;BME280;5572;49.540;11.932;2023-03-19T01:40:15;96457.59;;;3.61;100.00
11038;BME280;5572;49.540;11.932;2023-03-19T01:42:53;96452.59;;;3.70;100.00
11038;BME280;5572;49.540;11.932;2023-03-19T01:45:29;96469.03;;;3.57;100.00
11038;BME280;5572;49.540;11.932;2023-03-19T01:47:57;96479.06;;;3.50;100.00
11038;BME280;5572;49.540;11.932;2023-03-19T01:50:27;96478.00;;;3.51;100.00
11038;BME280;5572;49.540;11.932;2023-03-19T01:52:56;96476.91;;;3.47;100.00
11038;BME280;5572;49.540;11.932;2023-03-19T01:55:23;96483.91;;;3.53;100.00
11038;BME280;5572;49.540;11.932;2023-03-19T01:57:50;96481.00;;;3.54;100.00
11038;BME280;5572;49.540;11.932;2023-03-19T02:00:17;96478.31;;;3.33;100.00
11038;BME280;5572;49.540;11.932;2023-03-19T02:02:46;96485.66;;;3.42;100.00
11038;BME280;5572;49.540;11.932;2023-03-19T02:05:15;96488.81;;;3.39;100.00
11038;BME280;5572;49.540;11.932;2023-03-19T02:07:51;96474.00;;;3.32;100.00
11038;BME280;5572;49.540;11.932;2023-03-19T02:10:18;96477.22;;;3.13;100.00
11038;BME280;5572;49.540;11.932;2023-03-19T02:12:46;96475.44;;;3.18;100.00
11038;BME280;5572;49.540;11.932;2023-03-19T02:15:13;96474.44;;;3.24;100.00
11038;BME280;5572;49.540;11.932;2023-03-19T02:17:40;96474.19;;;3.26;100.00
11038;BME280;5572;49.540;11.932;2023-03-19T02:20:12;96481.88;;;3.22;100.00
11038;BME280;5572;49.540;11.932;2023-03-19T02:22:49;96484.72;;;3.16;100.00
11038;BME280;5572;49.540;11.932;2023-03-19T02:25:21;96493.28;;;3.18;100.00
11038;BME280;5572;49.540;11.932;2023-03-19T02:27:51;96492.88;;;3.26;100.00
11038;BME280;5572;49.540;11.932;2023-03-19T02:30:21;96504.56;;;3.20;100.00
11038;BME280;5572;49.540;11.932;2023-03-19T02:32:48;96510.84;;;3.30;100.00
11038;BME280;5572;49.540;11.932;2023-03-19T02:35:15;96505.53;;;3.14;100.00
11038;BME280;5572;49.540;11.932;2023-03-19T02:37:41;96509.78;;;3.15;100.00
11038;BME280;5572;49.540;11.932;2023-03-19T02:40:11;96513.03;;;3.17;100.00
11038;BME280;5572;49.540;11.932;2023-03-19T02:42:38;96517.81;;;3.15;100.00
11038;BME280;5572;49.540;11.932;2023-03-19T02:45:07;96515.72;;;3.17;100.00
11038;BME280;5572;49.540;11.932;2023-03-19T02:47:34;96506.47;;;3.24;100.00
11038;BME280;5572;49.540;11.932;2023-03-19T02:50:00;96518.16;;;3.18;100.00
11038;BME280;5572;49.540;11.932;2023-03-19T02:52:27;96519.84;;;3.24;100.00
11038;BME280;5572;49.540;11.932;2023-03-19T02:54:54;96510.50;;;3.27;100.00
11038;BME280;5572;49.540;11.932;2023-03-19T02:57:20;96514.97;;;3.38;100.00
11038;BME280;5572;49.540;11.932;2023-03-19T02:59:47;96520.06;;;3.39;100.00
11038;BME280;5572;49.540;11.932;2023-03-19T03:02:15;96528.72;;;3.46;100.00
11038;BME280;5572;49.540;11.932;2023-03-19T03:04:42;96537.09;;;3.54;100.00
11038;BME280;5572;49.540;11.932;2023-03-19T03:07:09;96537.44;;;3.58;100.00
11038;BME280;5572;49.540;11.932;2023-03-19T03:09:40;96539.97;;;3.48;100.00
11038;BME280;5572;49.540;11.932;2023-03-19T03:12:07;96540.72;;;3.43;100.00
11038;BME280;5572;49.540;11.932;2023-03-19T03:14:34;96539.31;;;3.25;100.00
11038;BME280;5572;49.540;11.932;2023-03-19T03:17:00;96546.44;;;3.36;100.00
11038;BME280;5572;49.540;11.932;2023-03-19T03:19:29;96564.50;;;3.45;100.00
11038;BME280;5572;49.540;11.932;2023-03-19T03:21:55;96564.91;;;3.37;100.00
11038;BME280;5572;49.540;11.932;2023-03-19T03:24:22;96562.25;;;3.21;100.00
11038;BME280;5572;49.540;11.932;2023-03-19T03:26:48;96570.25;;;3.21;100.00
11038;BME280;5572;49.540;11.932;2023-03-19T03:29:15;96562.41;;;3.14;100.00
11038;BME280;5572;49.540;11.932;2023-03-19T03:31:42;96567.50;;;3.16;100.00
11038;BME280;5572;49.540;11.932;2023-03-19T03:34:09;96565.66;;;3.16;100.00
11038;BME280;5572;49.540;11.932;2023-03-19T03:36:39;96568.31;;;3.16;100.00
11038;BME280;5572;49.540;11.932;2023-03-19T03:39:06;96573.81;;;3.26;100.00
11038;BME280;5572;49.540;11.932;2023-03-19T03:41:32;96594.72;;;3.29;100.00
11038;BME280;5572;49.540;11.932;2023-03-19T03:43:59;96597.84;;;3.26;100.00
11038;BME280;5572;49.540;11.932;2023-03-19T03:46:26;96588.53;;;3.29;100.00
11038;BME280;5572;49.540;11.932;2023-03-19T03:48:52;96584.88;;;3.35;100.00
11038;BME280;5572;49.540;11.932;2023-03-19T03:51:19;96575.75;;;3.31;100.00
11038;BME280;5572;49.540;11.932;2023-03-19T03:53:47;96575.34;;;3.22;100.00
11038;BME280;5572;49.540;11.932;2023-03-19T03:56:14;96587.41;;;3.25;100.00
11038;BME280;5572;49.540;11.932;2023-03-19T03:58:41;96590.56;;;3.22;100.00
11038;BME280;5572;49.540;11.932;2023-03-19T04:01:10;96602.38;;;3.26;100.00
11038;BME280;5572;49.540;11.932;2023-03-19T04:03:39;96605.28;;;3.40;100.00
11038;BME280;5572;49.540;11.932;2023-03-19T04:06:06;96608.84;;;3.46;100.00
11038;BME280;5572;49.540;11.932;2023-03-19T04:08:33;96605.03;;;3.26;100.00
11038;BME280;5572;49.540;11.932;2023-03-19T04:11:05;96612.84;;;3.43;100.00
11038;BME280;5572;49.540;11.932;2023-03-19T04:13:32;96618.34;;;3.37;100.00
11038;BME280;5572;49.540;11.932;2023-03-19T04:16:01;96608.38;;;3.33;100.00
11038;BME280;5572;49.540;11.932;2023-03-19T04:18:27;96607.13;;;3.40;100.00
11038;BME280;5572;49.540;11.932;2023-03-19T04:20:54;96604.31;;;3.46;100.00
11038;BME280;5572;49.540;11.932;2023-03-19T04:23:21;96614.78;;;3.48;100.00
11038;BME280;5572;49.540;11.932;2023-03-19T04:25:48;96607.56;;;3.48;100.00
11038;BME280;5572;49.540;11.932;2023-03-19T04:28:16;96607.88;;;3.52;100.00
11038;BME280;5572;49.540;11.932;2023-03-19T04:30:42;96616.41;;;3.49;100.00
11038;BME280;5572;49.540;11.932;2023-03-19T04:33:10;96614.34;;;3.56;100.00
11038;BME280;5572;49.540;11.932;2023-03-19T04:35:37;96614.25;;;3.51;100.00
11038;BME280;5572;49.540;11.932;2023-03-19T04:38:03;96619.94;;;3.54;100.00
11038;BME280;5572;49.540;11.932;2023-03-19T04:40:30;96618.56;;;3.52;100.00
11038;BME280;5572;49.540;11.932;2023-03-19T04:42:57;96622.94;;;3.58;100.00
11038;BME280;5572;49.540;11.932;2023-03-19T04:45:25;96617.03;;;3.56;100.00
11038;BME280;5572;49.540;11.932;2023-03-19T04:47:51;96630.81;;;3.48;100.00
11038;BME280;5572;49.540;11.932;2023-03-19T04:50:18;96628.50;;;3.40;100.00
11038;BME280;5572;49.540;11.932;2023-03-19T04:52:45;96628.94;;;3.48;100.00
11038;BME280;5572;49.540;11.932;2023-03-19T04:55:12;96632.81;;;3.57;100.00
11038;BME280;5572;49.540;11.932;2023-03-19T04:57:38;96635.47;;;3.57;100.00
11038;BME280;5572;49.540;11.932;2023-03-19T05:00:06;96633.63;;;3.58;100.00
11038;BME280;5572;49.540;11.932;2023-03-19T05:02:35;96635.63;;;3.35;100.00
11038;BME280;5572;49.540;11.932;2023-03-19T05:05:02;96633.22;;;3.33;100.00
11038;BME280;5572;49.540;11.932;2023-03-19T05:07:29;96636.78;;;3.38;100.00
11038;BME280;5572;49.540;11.932;2023-03-19T05:09:56;96631.19;;;3.40;100.00
11038;BME280;5572;49.540;11.932;2023-03-19T05:12:22;96643.75;;;3.39;100.00
11038;BME280;5572;49.540;11.932;2023-03-19T05:14:49;96647.06;;;3.46;100.00
11038;BME280;5572;49.540;11.932;2023-03-19T05:48:19;96657.47;;;3.81;100.00
11038;BME280;5572;49.540;11.932;2023-03-19T05:53:17;96672.94;;;3.95;100.00
11038;BME280;5572;49.540;11.932;2023-03-19T05:55:43;96682.09;;;3.99;100.00
11038;BME280;5572;49.540;11.932;2023-03-19T05:58:10;96701.28;;;4.13;100.00
11038;BME280;5572;49.540;11.932;2023-03-19T06:00:36;96695.19;;;4.17;100.00
11038;BME280;5572;49.540;11.932;2023-03-19T06:03:03;96696.91;;;4.23;100.00
11038;BME280;5572;49.540;11.932;2023-03-19T06:05:31;96708.41;;;4.23;100.00
11038;BME280;5572;49.540;11.932;2023-03-19T06:07:58;96711.38;;;4.27;100.00
11038;BME280;5572;49.540;11.932;2023-03-19T06:10:25;96722.09;;;4.27;100.00
11038;BME280;5572;49.540;11.932;2023-03-19T06:12:52;96733.69;;;4.32;100.00
11038;BME280;5572;49.540;11.932;2023-03-19T06:15:18;96726.63;;;4.43;100.00
11038;BME280;5572;49.540;11.932;2023-03-19T06:17:45;96736.88;;;4.51;100.00
11038;BME280;5572;49.540;11.932;2023-03-19T06:20:12;96736.41;;;4.54;100.00
11038;BME280;5572;49.540;11.932;2023-03-19T06:22:40;96748.97;;;4.53;100.00
11038;BME280;5572;49.540;11.932;2023-03-19T06:25:07;96753.31;;;4.59;100.00
11038;BME280;5572;49.540;11.932;2023-03-19T06:27:33;96748.22;;;4.58;100.00
11038;BME280;5572;49.540;11.932;2023-03-19T06:30:00;96753.97;;;4.66;100.00
11038;BME280;5572;49.540;11.932;2023-03-19T06:32:27;96762.63;;;4.73;100.00
11038;BME280;5572;49.540;11.932;2023-03-19T06:34:53;96766.00;;;4.85;100.00
11038;BME280;5572;49.540;11.932;2023-03-19T06:37:20;96770.13;;;4.93;100.00
11038;BME280;5572;49.540;11.932;2023-03-19T06:39:49;96778.28;;;5.03;100.00
11038;BME280;5572;49.540;11.932;2023-03-19T06:42:18;96786.75;;;5.16;100.00
11038;BME280;5572;49.540;11.932;2023-03-19T06:44:45;96796.22;;;5.23;100.00
11038;BME280;5572;49.540;11.932;2023-03-19T06:47:12;96796.84;;;5.30;100.00
11038;BME280;5572;49.540;11.932;2023-03-19T06:49:38;96798.31;;;5.43;100.00
11038;BME280;5572;49.540;11.932;2023-03-19T06:52:05;96803.47;;;5.49;100.00
11038;BME280;5572;49.540;11.932;2023-03-19T06:54:32;96805.41;;;5.54;100.00
11038;BME280;5572;49.540;11.932;2023-03-19T06:57:00;96797.63;;;5.52;100.00
11038;BME280;5572;49.540;11.932;2023-03-19T06:59:26;96808.03;;;5.49;100.00
11038;BME280;5572;49.540;11.932;2023-03-19T07:01:53;96810.19;;;5.52;100.00
11038;BME280;5572;49.540;11.932;2023-03-19T07:04:19;96823.91;;;5.77;100.00
11038;BME280;5572;49.540;11.932;2023-03-19T07:06:46;96826.50;;;5.72;100.00
11038;BME280;5572;49.540;11.932;2023-03-19T07:09:13;96817.84;;;5.65;100.00
11038;BME280;5572;49.540;11.932;2023-03-19T07:11:39;96829.44;;;5.92;100.00
11038;BME280;5572;49.540;11.932;2023-03-19T07:14:08;96825.78;;;6.02;100.00
11038;BME280;5572;49.540;11.932;2023-03-19T07:16:35;96847.53;;;6.32;100.00
11038;BME280;5572;49.540;11.932;2023-03-19T07:19:01;96837.75;;;6.21;100.00
11038;BME280;5572;49.540;11.932;2023-03-19T07:21:28;96840.28;;;6.33;100.00
11038;BME280;5572;49.540;11.932;2023-03-19T07:23:54;96849.03;;;6.55;100.00
11038;BME280;5572;49.540;11.932;2023-03-19T07:26:21;96861.25;;;6.72;100.00
11038;BME280;5572;49.540;11.932;2023-03-19T07:28:47;96862.63;;;6.75;100.00
11038;BME280;5572;49.540;11.932;2023-03-19T07:31:16;96855.13;;;7.18;100.00
11038;BME280;5572;49.540;11.932;2023-03-19T07:33:43;96862.03;;;7.04;100.00
11038;BME280;5572;49.540;11.932;2023-03-19T07:36:09;96839.88;;;7.33;100.00
11038;BME280;5572;49.540;11.932;2023-03-19T07:38:36;96844.75;;;7.41;100.00
11038;BME280;5572;49.540;11.932;2023-03-19T07:41:03;96835.06;;;7.40;100.00
11038;BME280;5572;49.540;11.932;2023-03-19T07:43:30;96825.69;;;7.48;100.00
11038;BME280;5572;49.540;11.932;2023-03-19T07:45:57;96829.19;;;7.43;100.00
11038;BME280;5572;49.540;11.932;2023-03-19T07:48:25;96817.03;;;7.36;100.00
11038;BME280;5572;49.540;11.932;2023-03-19T07:50:51;96807.97;;;7.62;100.00
11038;BME280;5572;49.540;11.932;2023-03-19T07:53:18;96784.81;;;7.46;100.00
11038;BME280;5572;49.540;11.932;2023-03-19T07:55:46;96771.94;;;7.63;100.00
11038;BME280;5572;49.540;11.932;2023-03-19T07:58:13;96767.59;;;7.47;100.00
11038;BME280;5572;49.540;11.932;2023-03-19T08:00:39;96764.41;;;7.69;100.00
11038;BME280;5572;49.540;11.932;2023-03-19T08:03:06;96756.88;;;7.62;100.00
11038;BME280;5572;49.540;11.932;2023-03-19T08:05:34;96743.16;;;7.68;100.00
11038;BME280;5572;49.540;11.932;2023-03-19T08:08:00;96729.69;;;7.58;100.00
11038;BME280;5572;49.540;11.932;2023-03-19T08:10:26;96730.53;;;7.68;100.00
11038;BME280;5572;49.540;11.932;2023-03-19T08:12:53;96735.13;;;7.88;100.00
11038;BME280;5572;49.540;11.932;2023-03-19T08:15:20;96739.97;;;8.06;100.00
11038;BME280;5572;49.540;11.932;2023-03-19T08:17:47;96735.19;;;8.23;100.00
11038;BME280;5572;49.540;11.932;2023-03-19T08:20:15;96731.38;;;8.24;100.00
11038;BME280;5572;49.540;11.932;2023-03-19T08:22:43;96713.63;;;8.28;100.00
11038;BME280;5572;49.540;11.932;2023-03-19T08:25:14;96713.34;;;8.19;100.00
11038;BME280;5572;49.540;11.932;2023-03-19T08:27:40;96694.47;;;8.09;100.00
11038;BME280;5572;49.540;11.932;2023-03-19T08:30:09;96685.59;;;8.14;100.00
11038;BME280;5572;49.540;11.932;2023-03-19T08:32:36;96686.97;;;7.96;100.00
11038;BME280;5572;49.540;11.932;2023-03-19T08:35:05;96668.63;;;8.48;100.00
11038;BME280;5572;49.540;11.932;2023-03-19T08:37:32;96674.94;;;8.97;100.00
11038;BME280;5572;49.540;11.932;2023-03-19T08:40:00;96658.44;;;9.03;100.00
11038;BME280;5572;49.540;11.932;2023-03-19T08:42:26;96653.78;;;8.51;100.00
11038;BME280;5572;49.540;11.932;2023-03-19T08:44:53;96652.69;;;8.56;100.00
11038;BME280;5572;49.540;11.932;2023-03-19T08:47:19;96646.31;;;9.01;100.00
11038;BME280;5572;49.540;11.932;2023-03-19T08:49:48;96640.03;;;9.20;100.00
11038;BME280;5572;49.540;11.932;2023-03-19T08:52:15;96636.19;;;9.26;100.00
11038;BME280;5572;49.540;11.932;2023-03-19T08:54:41;96639.13;;;9.30;100.00
11038;BME280;5572;49.540;11.932;2023-03-19T08:57:09;96621.09;;;9.30;100.00
11038;BME280;5572;49.540;11.932;2023-03-19T08:59:36;96593.88;;;9.27;100.00
11038;BME280;5572;49.540;11.932;2023-03-19T09:02:02;96574.81;;;9.13;100.00
11038;BME280;5572;49.540;11.932;2023-03-19T09:04:29;96550.69;;;8.88;100.00
11038;BME280;5572;49.540;11.932;2023-03-19T09:07:00;96535.53;;;8.97;100.00
11038;BME280;5572;49.540;11.932;2023-03-19T09:09:27;96538.06;;;9.22;100.00
11038;BME280;5572;49.540;11.932;2023-03-19T09:11:54;96536.78;;;9.15;100.00
11038;BME280;5572;49.540;11.932;2023-03-19T09:14:22;96521.66;;;9.47;100.00
11038;BME280;5572;49.540;11.932;2023-03-19T09:16:48;96527.03;;;10.09;100.00
11038;BME280;5572;49.540;11.932;2023-03-19T09:19:15;96524.78;;;10.39;100.00
11038;BME280;5572;49.540;11.932;2023-03-19T09:21:42;96511.09;;;10.54;100.00
11038;BME280;5572;49.540;11.932;2023-03-19T09:24:09;96510.41;;;9.68;100.00
11038;BME280;5572;49.540;11.932;2023-03-19T09:26:36;96500.16;;;9.99;100.00
11038;BME280;5572;49.540;11.932;2023-03-19T09:29:02;96490.94;;;9.71;100.00
11038;BME280;5572;49.540;11.932;2023-03-19T09:31:30;96491.38;;;10.12;100.00
11038;BME280;5572;49.540;11.932;2023-03-19T09:33:57;96491.47;;;10.25;100.00
11038;BME280;5572;49.540;11.932;2023-03-19T09:36:24;96497.38;;;10.69;100.00
11038;BME280;5572;49.540;11.932;2023-03-19T09:38:50;96500.03;;;10.92;100.00
11038;BME280;5572;49.540;11.932;2023-03-19T09:41:23;96494.75;;;10.82;100.00
11038;BME280;5572;49.540;11.932;2023-03-19T09:44:00;96477.00;;;10.95;100.00
11038;BME280;5572;49.540;11.932;2023-03-19T09:46:35;96474.41;;;11.03;100.00
11038;BME280;5572;49.540;11.932;2023-03-19T09:49:13;96465.00;;;11.01;100.00
11038;BME280;5572;49.540;11.932;2023-03-19T09:51:44;96458.13;;;11.08;100.00
11038;BME280;5572;49.540;11.932;2023-03-19T09:54:28;96453.25;;;11.23;100.00
11038;BME280;5572;49.540;11.932;2023-03-19T09:56:56;96447.69;;;11.33;100.00
11038;BME280;5572;49.540;11.932;2023-03-19T09:59:24;96435.19;;;11.37;100.00
11038;BME280;5572;49.540;11.932;2023-03-19T10:01:57;96421.66;;;11.37;100.00
11038;BME280;5572;49.540;11.932;2023-03-19T10:04:46;96407.59;;;11.35;100.00
11038;BME280;5572;49.540;11.932;2023-03-19T10:07:37;96393.66;;;11.28;100.00
11038;BME280;5572;49.540;11.932;2023-03-19T10:10:27;96411.59;;;11.24;100.00
11038;BME280;5572;49.540;11.932;2023-03-19T10:13:02;96391.00;;;11.42;100.00
11038;BME280;5572;49.540;11.932;2023-03-19T10:15:34;96393.16;;;11.26;100.00
11038;BME280;5572;49.540;11.932;2023-03-19T10:18:06;96390.88;;;11.33;100.00
11038;BME280;5572;49.540;11.932;2023-03-19T10:20:43;96368.91;;;11.48;100.00
11038;BME280;5572;49.540;11.932;2023-03-19T10:23:41;96349.88;;;11.40;100.00
11038;BME280;5572;49.540;11.932;2023-03-19T10:26:11;96340.75;;;11.36;100.00
11038;BME280;5572;49.540;11.932;2023-03-19T10:28:40;96315.59;;;11.35;100.00
11038;BME280;5572;49.540;11.932;2023-03-19T10:31:17;96319.41;;;11.21;100.00
11038;BME280;5572;49.540;11.932;2023-03-19T10:33:52;96294.75;;;11.36;100.00
11038;BME280;5572;49.540;11.932;2023-03-19T10:36:26;96274.13;;;11.26;100.00
11038;BME280;5572;49.540;11.932;2023-03-19T10:38:56;96269.28;;;11.23;100.00
11038;BME280;5572;49.540;11.932;2023-03-19T10:41:28;96266.97;;;11.17;100.00
11038;BME280;5572;49.540;11.932;2023-03-19T10:44:00;96255.44;;;11.38;100.00
11038;BME280;5572;49.540;11.932;2023-03-19T10:46:35;96268.19;;;11.51;100.00
11038;BME280;5572;49.540;11.932;2023-03-19T10:49:03;96267.50;;;11.59;100.00
11038;BME280;5572;49.540;11.932;2023-03-19T10:51:30;96274.91;;;11.54;100.00
11038;BME280;5572;49.540;11.932;2023-03-19T10:53:59;96284.81;;;11.45;100.00
11038;BME280;5572;49.540;11.932;2023-03-19T10:56:27;96286.75;;;11.58;100.00
11038;BME280;5572;49.540;11.932;2023-03-19T10:58:57;96297.84;;;11.16;100.00
11038;BME280;5572;49.540;11.932;2023-03-19T11:01:31;96292.53;;;11.24;100.00
11038;BME280;5572;49.540;11.932;2023-03-19T11:04:00;96297.31;;;11.14;100.00
11038;BME280;5572;49.540;11.932;2023-03-19T11:06:31;96300.84;;;11.14;100.00
11038;BME280;5572;49.540;11.932;2023-03-19T11:08:59;96317.09;;;11.28;100.00
11038;BME280;5572;49.540;11.932;2023-03-19T11:11:33;96313.25;;;11.02;100.00
11038;BME280;5572;49.540;11.932;2023-03-19T11:14:08;96329.97;;;11.04;100.00
11038;BME280;5572;49.540;11.932;2023-03-19T11:16:50;96352.75;;;11.16;100.00
11038;BME280;5572;49.540;11.932;2023-03-19T11:19:22;96355.59;;;10.93;100.00
11038;BME280;5572;49.540;11.932;2023-03-19T11:21:59;96380.00;;;10.88;100.00
11038;BME280;5572;49.540;11.932;2023-03-19T11:24:27;96397.34;;;11.19;100.00
11038;BME280;5572;49.540;11.932;2023-03-19T11:26:56;96414.72;;;11.45;100.00
11038;BME280;5572;49.540;11.932;2023-03-19T11:29:25;96440.38;;;11.66;100.00
11038;BME280;5572;49.540;11.932;2023-03-19T11:31:59;96454.94;;;11.83;100.00
11038;BME280;5572;49.540;11.932;2023-03-19T11:34:33;96465.06;;;12.04;100.00
11038;BME280;5572;49.540;11.932;2023-03-19T11:37:06;96453.13;;;12.05;100.00
11038;BME280;5572;49.540;11.932;2023-03-19T11:39:43;96422.09;;;11.58;100.00
11038;BME280;5572;49.540;11.932;2023-03-19T11:42:38;96436.56;;;11.80;100.00
11038;BME280;5572;49.540;11.932;2023-03-19T11:45:16;96424.75;;;11.90;100.00
11038;BME280;5572;49.540;11.932;2023-03-19T11:47:50;96401.38;;;11.35;100.00
11038;BME280;5572;49.540;11.932;2023-03-19T11:50:24;96441.06;;;11.71;100.00
11038;BME280;5572;49.540;11.932;2023-03-19T11:53:12;96418.63;;;11.39;100.00
11038;BME280;5572;49.540;11.932;2023-03-19T11:55:42;96446.41;;;11.76;100.00
11038;BME280;5572;49.540;11.932;2023-03-19T11:58:28;96428.31;;;11.58;100.00
11038;BME280;5572;49.540;11.932;2023-03-19T12:01:06;96409.09;;;11.60;100.00
11038;BME280;5572;49.540;11.932;2023-03-19T12:04:04;96401.13;;;11.50;100.00
11038;BME280;5572;49.540;11.932;2023-03-19T12:06:46;96406.91;;;11.75;100.00
11038;BME280;5572;49.540;11.932;2023-03-19T12:09:22;96414.50;;;12.27;100.00
11038;BME280;5572;49.540;11.932;2023-03-19T12:11:52;96394.03;;;12.07;100.00
11038;BME280;5572;49.540;11.932;2023-03-19T12:14:31;96389.03;;;11.88;100.00
11038;BME280;5572;49.540;11.932;2023-03-19T12:17:15;96370.03;;;12.14;100.00
11038;BME280;5572;49.540;11.932;2023-03-19T12:19:54;96372.41;;;11.81;100.00
11038;BME280;5572;49.540;11.932;2023-03-19T12:22:38;96364.66;;;11.61;100.00
11038;BME280;5572;49.540;11.932;2023-03-19T12:25:21;96340.28;;;11.47;100.00
11038;BME280;5572;49.540;11.932;2023-03-19T12:27:53;96334.59;;;11.62;100.00
11038;BME280;5572;49.540;11.932;2023-03-19T12:30:29;96333.16;;;11.92;100.00
11038;BME280;5572;49.540;11.932;2023-03-19T12:33:19;96344.50;;;12.07;100.00
11038;BME280;5572;49.540;11.932;2023-03-19T12:35:52;96321.56;;;12.26;100.00
11038;BME280;5572;49.540;11.932;2023-03-19T12:38:23;96317.81;;;12.80;100.00
11038;BME280;5572;49.540;11.932;2023-03-19T12:40:56;96303.09;;;13.16;100.00
11038;BME280;5572;49.540;11.932;2023-03-19T12:43:27;96257.91;;;13.59;100.00
11038;BME280;5572;49.540;11.932;2023-03-19T12:45:59;96217.59;;;14.25;100.00
11038;BME280;5572;49.540;11.932;2023-03-19T12:48:32;96182.88;;;14.05;100.00
11038;BME280;5572;49.540;11.932;2023-03-19T12:51:04;96180.72;;;13.43;100.00
11038;BME280;5572;49.540;11.932;2023-03-19T12:53:42;96169.41;;;13.74;100.00
11038;BME280;5572;49.540;11.932;2023-03-19T12:56:16;96145.59;;;13.46;100.00
11038;BME280;5572;49.540;11.932;2023-03-19T12:58:51;96138.06;;;12.88;100.00
11038;BME280;5572;49.540;11.932;2023-03-19T13:01:23;96132.72;;;12.66;100.00
11038;BME280;5572;49.540;11.932;2023-03-19T13:03:54;96121.31;;;14.09;100.00
11038;BME280;5572;49.540;11.932;2023-03-19T13:06:25;96058.25;;;14.49;100.00
11038;BME280;5572;49.540;11.932;2023-03-19T13:08:56;96019.25;;;13.15;100.00
11038;BME280;5572;49.540;11.932;2023-03-19T13:11:33;95741.00;;;14.33;100.00
11038;BME280;5572;49.540;11.932;2023-03-19T13:14:04;95740.25;;;14.44;100.00
11038;BME280;5572;49.540;11.932;2023-03-19T13:16:38;95765.75;;;13.90;100.00
11038;BME280;5572;49.540;11.932;2023-03-19T13:19:15;95759.72;;;14.05;100.00
11038;BME280;5572;49.540;11.932;2023-03-19T13:21:44;95789.31;;;13.41;100.00
11038;BME280;5572;49.540;11.932;2023-03-19T13:24:18;95774.34;;;13.64;100.00
11038;BME280;5572;49.540;11.932;2023-03-19T13:26:48;95785.38;;;13.96;100.00
11038;BME280;5572;49.540;11.932;2023-03-19T13:29:18;95800.00;;;13.74;100.00
11038;BME280;5572;49.540;11.932;2023-03-19T13:31:45;95811.53;;;13.34;100.00
11038;BME280;5572;49.540;11.932;2023-03-19T13:34:19;95835.41;;;12.95;100.00
11038;BME280;5572;49.540;11.932;2023-03-19T13:36:51;95809.22;;;12.99;100.00
11038;BME280;5572;49.540;11.932;2023-03-19T13:39:19;95813.19;;;13.10;100.00
11038;BME280;5572;49.540;11.932;2023-03-19T13:41:56;95827.41;;;12.98;100.00
11038;BME280;5572;49.540;11.932;2023-03-19T13:44:28;95834.56;;;13.20;100.00